Time;durP1;ratioP1;P1;durP2;ratioP2;P2;SDS_P1;SDS_P2;PMS_P1;PMS_P2;Temp;Humidity;BMP_temperature;BMP_pressure;BME280_temperature;BME280_humidity;BME280_pressure;Samples;Min_cycle;Max_cycle;Signal;HPM_P1;HPM_P2
2024/04/22 00:01:44;;;;;;;9.50;7.20;;;4.80;99.90;;;;;;5382761;26;20007;-90
2024/04/22 00:04:10;;;;;;;9.38;7.85;;;4.80;99.90;;;;;;5358554;26;20351;-90
2024/04/22 00:06:35;;;;;;;8.90;6.78;;;4.80;99.90;;;;;;5376316;26;20050;-89
2024/04/22 00:09:01;;;;;;;10.00;6.28;;;4.80;99.90;;;;;;5386500;26;20000;-90
2024/04/22 00:11:27;;;;;;;11.23;6.30;;;4.80;99.90;;;;;;5385578;26;19992;-89
2024/04/22 00:13:52;;;;;;;9.07;6.43;;;4.90;99.90;;;;;;5386603;26;19996;-90
2024/04/22 00:16:18;;;;;;;9.20;6.55;;;4.90;99.90;;;;;;5373337;26;19993;-89
2024/04/22 00:18:45;;;;;;;7.93;6.50;;;4.90;99.90;;;;;;5387040;26;20386;-90
2024/04/22 00:21:10;;;;;;;8.45;5.72;;;4.90;99.90;;;;;;5399315;26;19996;-91
2024/04/22 00:23:36;;;;;;;11.32;6.43;;;4.90;99.90;;;;;;5365334;26;19997;-90
2024/04/22 00:26:02;;;;;;;9.98;7.03;;;4.90;99.90;;;;;;5409592;26;20007;-89
2024/04/22 00:28:27;;;;;;;9.07;6.93;;;4.90;99.90;;;;;;5341527;26;20393;-90
2024/04/22 00:30:53;;;;;;;7.20;5.30;;;4.80;99.90;;;;;;5385645;26;20018;-91
2024/04/22 00:33:19;;;;;;;7.45;5.15;;;4.80;99.90;;;;;;5384492;26;20486;-91
2024/04/22 00:35:56;;;;;;;6.70;5.38;;;4.80;99.90;;;;;;5384870;26;19992;-89
2024/04/22 00:38:23;;;;;;;7.38;4.93;;;4.80;99.90;;;;;;5338655;26;20016;-90
2024/04/22 00:40:49;;;;;;;8.45;5.82;;;4.80;99.90;;;;;;5377542;26;20087;-91
2024/04/22 00:43:14;;;;;;;7.70;6.03;;;4.80;99.90;;;;;;5373114;26;20392;-90
2024/04/22 00:45:40;;;;;;;8.48;5.03;;;4.80;99.90;;;;;;5372582;26;20495;-91
2024/04/22 00:48:06;;;;;;;8.02;6.03;;;4.70;99.90;;;;;;5350284;26;20001;-89
2024/04/22 00:50:32;;;;;;;8.82;5.20;;;4.70;99.90;;;;;;5358445;26;19997;-92
2024/04/22 00:52:59;;;;;;;9.00;5.97;;;4.70;99.90;;;;;;5385752;26;20004;-89
2024/04/22 00:55:25;;;;;;;8.75;5.47;;;4.70;99.90;;;;;;5373715;26;20015;-90
2024/04/22 00:57:55;;;;;;;9.38;6.70;;;4.80;99.90;;;;;;5385477;26;20015;-90
2024/04/22 01:00:21;;;;;;;7.00;5.40;;;4.80;99.90;;;;;;5354822;26;20068;-90
2024/04/22 01:02:48;;;;;;;8.43;5.85;;;4.80;99.90;;;;;;5349513;26;20008;-90
2024/04/22 01:05:14;;;;;;;8.98;6.05;;;4.80;99.90;;;;;;5381916;26;20004;-90
2024/04/22 01:07:40;;;;;;;8.73;6.10;;;4.80;99.90;;;;;;5370494;26;19996;-91
2024/04/22 01:10:06;;;;;;;11.23;7.15;;;4.80;99.90;;;;;;5383108;26;20004;-92
2024/04/22 01:12:32;;;;;;;10.80;6.70;;;4.80;99.90;;;;;;5384781;26;20041;-89
2024/04/22 01:14:58;;;;;;;9.10;5.75;;;4.70;99.90;;;;;;5385980;26;20004;-89
2024/04/22 01:17:44;;;;;;;9.38;6.68;;;4.60;99.90;;;;;;5380458;26;20335;-90
2024/04/22 01:20:10;;;;;;;10.02;5.90;;;4.60;99.90;;;;;;5383989;26;20010;-90
2024/04/22 01:22:36;;;;;;;9.85;6.18;;;4.70;99.90;;;;;;5396018;26;20012;-90
2024/04/22 01:25:02;;;;;;;7.55;5.93;;;4.60;99.90;;;;;;5383774;26;20016;-91
2024/04/22 01:27:31;;;;;;;8.65;6.05;;;4.60;99.90;;;;;;5377446;26;19997;-90
2024/04/22 01:30:00;;;;;;;7.93;5.45;;;4.70;99.90;;;;;;5377103;26;20482;-89
2024/04/22 01:32:27;;;;;;;9.57;6.18;;;4.60;99.90;;;;;;5383856;26;20001;-90
2024/04/22 01:34:58;;;;;;;9.30;5.90;;;4.60;99.90;;;;;;5397692;26;20025;-90
2024/04/22 01:37:24;;;;;;;9.68;6.82;;;4.50;99.90;;;;;;5368804;26;20355;-90
2024/04/22 01:39:49;;;;;;;8.38;5.80;;;4.50;99.90;;;;;;5366597;26;20000;-90
2024/04/22 01:42:15;;;;;;;9.00;6.35;;;4.40;99.90;;;;;;5394946;26;19995;-90
2024/04/22 01:44:41;;;;;;;7.20;5.80;;;4.40;99.90;;;;;;5374733;26;20004;-90
2024/04/22 01:47:07;;;;;;;8.25;5.93;;;4.50;99.90;;;;;;5384303;26;20000;-90
2024/04/22 01:49:32;;;;;;;8.35;5.95;;;4.50;99.90;;;;;;5384276;26;19996;-90
2024/04/22 01:51:58;;;;;;;9.50;6.40;;;4.50;99.90;;;;;;5380544;26;19996;-91
2024/04/22 01:54:24;;;;;;;9.23;6.03;;;4.50;99.90;;;;;;5399207;26;20458;-89
2024/04/22 01:56:50;;;;;;;9.15;6.22;;;4.50;99.90;;;;;;5353506;26;20061;-90
2024/04/22 01:59:18;;;;;;;9.75;6.50;;;4.40;99.90;;;;;;5384259;26;20051;-90
2024/04/22 02:01:44;;;;;;;8.25;6.32;;;4.40;99.90;;;;;;5341841;26;20387;-90
2024/04/22 02:04:09;;;;;;;9.00;5.97;;;4.40;99.90;;;;;;5380796;26;20024;-89
2024/04/22 02:06:36;;;;;;;12.05;6.63;;;4.40;99.90;;;;;;5384690;26;20015;-90
2024/04/22 02:09:02;;;;;;;9.82;6.80;;;4.40;99.90;;;;;;5384628;26;20000;-89
2024/04/22 02:11:28;;;;;;;9.85;6.47;;;4.30;99.90;;;;;;5383897;26;20038;-89
2024/04/22 02:13:53;;;;;;;8.25;5.65;;;4.30;99.90;;;;;;5352965;26;20051;-90
2024/04/22 02:16:19;;;;;;;8.90;6.85;;;4.20;99.90;;;;;;5399746;26;20048;-90
2024/04/22 02:18:45;;;;;;;7.75;5.45;;;4.20;99.90;;;;;;5382839;26;20000;-89
2024/04/22 02:21:10;;;;;;;11.13;6.00;;;4.10;99.90;;;;;;5383301;26;20028;-89
2024/04/22 02:23:36;;;;;;;10.80;5.93;;;4.10;99.90;;;;;;5393372;26;19996;-91
2024/04/22 02:26:02;;;;;;;9.88;6.57;;;4.10;99.90;;;;;;5389648;26;20008;-91
2024/04/22 02:28:29;;;;;;;10.32;6.68;;;4.10;99.90;;;;;;5383091;26;20000;-90
2024/04/22 02:30:55;;;;;;;8.80;5.93;;;4.10;99.90;;;;;;5375969;26;20370;-90
2024/04/22 02:33:20;;;;;;;9.48;6.32;;;4.10;99.90;;;;;;5343801;26;20032;-88
2024/04/22 02:35:47;;;;;;;8.75;5.38;;;4.10;99.90;;;;;;5383814;26;20004;-91
2024/04/22 02:38:13;;;;;;;8.02;6.35;;;4.10;99.90;;;;;;5381569;26;20073;-90
2024/04/22 02:40:40;;;;;;;9.55;5.72;;;4.00;99.90;;;;;;5357667;26;20024;-90
2024/04/22 02:43:05;;;;;;;8.40;5.97;;;4.10;99.90;;;;;;5351331;26;20000;-90
2024/04/22 02:45:31;;;;;;;6.72;6.00;;;4.00;99.90;;;;;;5410661;26;20003;-88
2024/04/22 02:47:57;;;;;;;9.52;6.75;;;4.00;99.90;;;;;;5396439;26;19992;-90
2024/04/22 02:50:22;;;;;;;8.48;5.93;;;3.90;99.90;;;;;;5349798;26;20074;-90
2024/04/22 02:52:48;;;;;;;8.95;5.47;;;3.90;99.90;;;;;;5348325;26;20070;-91
2024/04/22 02:55:14;;;;;;;9.35;6.13;;;3.90;99.90;;;;;;5346963;26;20012;-90
2024/04/22 02:57:39;;;;;;;9.75;6.60;;;3.90;99.90;;;;;;5347316;26;20007;-91
2024/04/22 03:00:05;;;;;;;9.05;6.07;;;3.90;99.90;;;;;;5339788;26;19999;-89
2024/04/22 03:02:31;;;;;;;8.82;5.47;;;3.80;99.90;;;;;;5368659;26;20003;-89
2024/04/22 03:04:57;;;;;;;8.85;5.88;;;3.80;99.90;;;;;;5369981;26;20001;-90
2024/04/22 03:07:22;;;;;;;8.77;6.35;;;3.80;99.90;;;;;;5381884;26;20458;-91
2024/04/22 03:09:49;;;;;;;9.80;7.45;;;3.70;99.90;;;;;;5382878;26;20004;-91
2024/04/22 03:12:15;;;;;;;10.55;6.30;;;3.80;99.90;;;;;;5400701;26;19992;-88
2024/04/22 03:14:41;;;;;;;8.15;5.78;;;3.70;99.90;;;;;;5393470;26;20335;-90
2024/04/22 03:17:06;;;;;;;8.70;5.07;;;3.70;99.90;;;;;;5369664;26;20008;-90
2024/04/22 03:19:32;;;;;;;9.00;5.25;;;3.60;99.90;;;;;;5392472;26;20006;-91
2024/04/22 03:21:58;;;;;;;9.85;4.85;;;3.60;99.90;;;;;;5397005;26;20006;-89
2024/04/22 03:24:23;;;;;;;9.32;5.88;;;3.60;99.90;;;;;;5368344;26;20003;-89
2024/04/22 03:26:49;;;;;;;7.68;5.50;;;3.60;99.90;;;;;;5383714;26;19992;-90
2024/04/22 03:29:16;;;;;;;8.30;5.72;;;3.60;99.90;;;;;;5386929;26;20008;-91
2024/04/22 03:31:41;;;;;;;7.15;4.47;;;3.60;99.90;;;;;;5345879;26;20010;-90
2024/04/22 03:34:08;;;;;;;8.48;5.28;;;3.50;99.90;;;;;;5369360;26;19996;-90
2024/04/22 03:36:33;;;;;;;8.50;5.35;;;3.50;99.90;;;;;;5383623;26;20057;-89
2024/04/22 03:38:59;;;;;;;9.05;6.32;;;3.40;99.90;;;;;;5353834;26;20478;-90
2024/04/22 03:41:27;;;;;;;8.00;5.22;;;3.40;99.90;;;;;;5385849;26;19993;-89
2024/04/22 03:43:53;;;;;;;8.27;5.10;;;3.30;99.90;;;;;;5385782;26;19996;-90
2024/04/22 03:51:48;;;;;;;9.00;6.57;;;3.20;99.90;;;;;;5382209;26;20378;-91
2024/04/22 03:54:14;;;;;;;9.77;6.25;;;3.20;99.90;;;;;;5376079;26;20000;-90
2024/04/22 03:56:41;;;;;;;8.52;6.15;;;3.10;99.90;;;;;;5360547;26;20000;-90
2024/04/22 03:59:07;;;;;;;8.50;6.38;;;3.00;99.90;;;;;;5368004;26;20398;-90
2024/04/22 04:01:32;;;;;;;8.30;6.72;;;3.00;99.90;;;;;;5362461;26;20046;-89
2024/04/22 04:03:59;;;;;;;10.00;6.85;;;2.90;99.90;;;;;;5385309;26;20458;-89
2024/04/22 04:06:26;;;;;;;10.73;8.27;;;2.80;99.90;;;;;;5385898;26;20000;-89
2024/04/22 04:08:52;;;;;;;23.60;16.15;;;2.80;99.90;;;;;;5385350;26;20012;-90
2024/04/22 04:11:23;;;;;;;15.80;11.25;;;2.70;99.90;;;;;;5395666;26;20068;-90
2024/04/22 04:13:49;;;;;;;16.73;10.27;;;2.60;99.90;;;;;;5383303;26;20007;-90
2024/04/22 04:16:14;;;;;;;15.15;9.77;;;2.60;99.90;;;;;;5396695;26;20031;-89
2024/04/22 04:18:41;;;;;;;14.65;11.25;;;2.60;99.90;;;;;;5370607;26;20000;-91
2024/04/22 04:21:07;;;;;;;13.50;8.73;;;2.60;99.90;;;;;;5375947;26;20012;-90
2024/04/22 04:23:33;;;;;;;30.55;18.85;;;2.50;99.90;;;;;;5375079;26;20007;-90
2024/04/22 04:25:59;;;;;;;23.92;16.55;;;2.50;99.90;;;;;;5375527;26;20079;-90
2024/04/22 04:28:25;;;;;;;29.90;19.00;;;2.50;99.90;;;;;;5375407;26;20012;-91
2024/04/22 04:30:55;;;;;;;17.83;12.23;;;2.50;99.90;;;;;;5375057;26;19997;-90
2024/04/22 04:33:20;;;;;;;31.75;16.90;;;2.50;99.90;;;;;;5351854;26;20325;-92
2024/04/22 04:35:55;;;;;;;14.85;9.93;;;2.50;99.90;;;;;;5374431;26;20009;-90
2024/04/22 04:38:21;;;;;;;13.73;8.40;;;2.40;99.90;;;;;;5382905;26;20004;-91
2024/04/22 04:40:47;;;;;;;13.40;8.13;;;2.40;99.90;;;;;;5380452;26;20535;-90
2024/04/22 04:43:12;;;;;;;12.35;8.35;;;2.50;99.90;;;;;;5362456;26;20021;-91
2024/04/22 04:45:38;;;;;;;14.82;11.00;;;2.50;99.90;;;;;;5346941;26;20473;-91
2024/04/22 04:48:04;;;;;;;10.13;7.95;;;2.50;99.90;;;;;;5380017;26;20034;-90
2024/04/22 04:50:29;;;;;;;15.65;9.15;;;2.40;99.90;;;;;;5398877;26;20047;-91
2024/04/22 04:52:55;;;;;;;10.20;6.72;;;2.50;99.90;;;;;;5383986;26;20008;-90
2024/04/22 04:55:21;;;;;;;8.13;6.28;;;2.50;99.90;;;;;;5364937;26;20016;-91
2024/04/22 04:57:46;;;;;;;11.85;7.97;;;2.50;99.90;;;;;;5383099;26;20491;-91
2024/04/22 05:00:12;;;;;;;10.88;8.82;;;2.40;99.90;;;;;;5384417;26;19996;-92
2024/04/22 05:02:37;;;;;;;9.98;6.72;;;2.40;99.90;;;;;;5385394;26;19999;-90
2024/04/22 05:05:04;;;;;;;10.25;6.38;;;2.30;99.90;;;;;;5374096;26;20007;-90
2024/04/22 05:07:31;;;;;;;10.98;6.68;;;2.40;99.90;;;;;;5383690;26;20011;-91
2024/04/22 05:09:56;;;;;;;11.98;7.15;;;2.30;99.90;;;;;;5370019;26;20000;-91
2024/04/22 05:12:22;;;;;;;10.50;6.43;;;2.30;99.90;;;;;;5342821;26;20163;-92
2024/04/22 05:14:48;;;;;;;12.75;6.97;;;2.40;99.90;;;;;;5340091;26;20001;-91
2024/04/22 05:17:13;;;;;;;9.52;6.80;;;2.40;99.90;;;;;;5373383;26;20000;-92
2024/04/22 05:19:39;;;;;;;12.18;6.78;;;2.40;99.90;;;;;;5365999;26;20067;-91
2024/04/22 05:22:04;;;;;;;7.80;5.88;;;2.40;99.90;;;;;;5370116;26;19996;-90
2024/04/22 05:24:30;;;;;;;18.25;11.15;;;2.40;99.90;;;;;;5369785;26;20005;-91
2024/04/22 05:26:56;;;;;;;13.70;8.65;;;2.40;99.90;;;;;;5368965;26;20005;-90
2024/04/22 05:29:21;;;;;;;12.48;7.55;;;2.40;99.90;;;;;;5366234;26;20004;-90
2024/04/22 05:31:47;;;;;;;56.88;30.00;;;2.50;99.90;;;;;;5379632;26;20015;-91
2024/04/22 05:36:57;;;;;;;28.13;13.77;;;2.40;98.50;;;;;;5368787;26;20020;-91
2024/04/22 05:39:23;;;;;;;36.33;19.80;;;2.50;98.60;;;;;;5356702;26;20008;-90
2024/04/22 05:41:48;;;;;;;22.70;12.18;;;2.50;99.20;;;;;;5382440;26;20008;-91
2024/04/22 05:44:16;;;;;;;17.23;11.73;;;2.60;99.30;;;;;;5361161;26;20001;-91
2024/04/22 05:46:42;;;;;;;12.40;8.80;;;2.60;98.00;;;;;;5380564;26;20017;-90
2024/04/22 05:49:08;;;;;;;15.05;8.38;;;2.60;98.20;;;;;;5405325;26;20038;-90
2024/04/22 05:51:34;;;;;;;14.90;9.13;;;2.70;98.90;;;;;;5364606;26;20011;-91
2024/04/22 05:53:59;;;;;;;11.43;6.45;;;2.80;97.40;;;;;;5367755;26;20053;-89
2024/04/22 05:56:25;;;;;;;9.75;6.63;;;2.80;95.80;;;;;;5336803;26;20018;-90
2024/04/22 05:58:50;;;;;;;10.45;6.68;;;2.80;97.50;;;;;;5378568;26;20046;-91
2024/04/22 06:01:19;;;;;;;10.27;6.72;;;2.80;96.70;;;;;;5356260;26;20106;-92
2024/04/22 06:03:44;;;;;;;9.43;6.40;;;2.90;96.60;;;;;;5375863;26;20004;-90
2024/04/22 06:06:10;;;;;;;8.10;5.80;;;2.90;96.10;;;;;;5360658;26;20433;-89
2024/04/22 06:08:36;;;;;;;9.60;6.50;;;3.00;96.10;;;;;;5354333;26;20008;-90
2024/04/22 06:11:01;;;;;;;7.47;5.22;;;3.00;94.10;;;;;;5363033;26;20054;-90
2024/04/22 06:13:27;;;;;;;9.40;5.70;;;3.10;95.00;;;;;;5371152;26;19997;-91
2024/04/22 06:15:53;;;;;;;10.32;5.03;;;3.10;93.90;;;;;;5385089;26;20004;-91
2024/04/22 06:18:19;;;;;;;14.15;8.27;;;3.10;93.40;;;;;;5373329;26;19997;-90
2024/04/22 06:20:44;;;;;;;8.23;5.47;;;3.20;93.70;;;;;;5343655;26;20012;-92
2024/04/22 06:23:10;;;;;;;7.47;4.38;;;3.30;93.80;;;;;;5351428;26;20016;-91
2024/04/22 06:25:36;;;;;;;7.55;5.10;;;3.30;93.00;;;;;;5345282;26;20004;-90
2024/04/22 06:28:01;;;;;;;7.18;5.43;;;3.40;92.00;;;;;;5366026;26;20010;-90
2024/04/22 06:30:27;;;;;;;6.50;5.22;;;3.50;92.50;;;;;;5371878;26;20327;-90
2024/04/22 06:32:53;;;;;;;7.05;4.97;;;3.50;89.40;;;;;;5332055;26;20020;-91
2024/04/22 06:35:22;;;;;;;6.07;3.90;;;3.60;88.10;;;;;;5351854;26;20015;-92
2024/04/22 06:37:53;;;;;;;6.43;5.38;;;3.70;89.50;;;;;;5373055;26;20004;-92
2024/04/22 06:40:22;;;;;;;8.65;4.63;;;3.70;88.20;;;;;;5374172;26;20011;-93
2024/04/22 06:42:56;;;;;;;8.55;5.68;;;3.80;90.00;;;;;;5350067;26;20346;-92
2024/04/22 06:45:22;;;;;;;7.57;5.25;;;3.90;87.20;;;;;;5388103;26;20054;-92
2024/04/22 06:47:50;;;;;;;6.80;4.78;;;3.90;86.10;;;;;;5403722;26;19992;-92
2024/04/22 06:50:16;;;;;;;9.77;5.32;;;4.00;86.90;;;;;;5404326;26;19996;-94
2024/04/22 06:52:41;;;;;;;6.53;4.38;;;4.10;86.20;;;;;;5368833;26;19993;-92
2024/04/22 06:55:09;;;;;;;6.95;4.30;;;4.20;85.00;;;;;;5369484;26;20003;-93
2024/04/22 06:57:38;;;;;;;6.32;4.78;;;4.20;85.20;;;;;;5380401;26;19997;-93
2024/04/22 07:00:04;;;;;;;6.85;3.90;;;4.30;87.20;;;;;;5341254;26;20005;-94
2024/04/22 07:02:31;;;;;;;6.55;3.38;;;4.40;84.70;;;;;;5359335;26;20000;-95
2024/04/22 07:04:57;;;;;;;6.30;4.00;;;4.50;85.00;;;;;;5374484;26;20000;-92
2024/04/22 07:07:22;;;;;;;7.15;4.88;;;4.60;84.50;;;;;;5397310;26;20019;-91
2024/04/22 07:09:48;;;;;;;6.30;3.70;;;4.70;84.50;;;;;;5364880;26;20117;-92
2024/04/22 07:12:14;;;;;;;7.47;4.03;;;4.70;81.60;;;;;;5370150;26;19996;-91
2024/04/22 07:14:39;;;;;;;8.02;4.32;;;4.70;82.90;;;;;;5339976;26;19997;-93
2024/04/22 07:17:05;;;;;;;5.05;4.35;;;4.70;83.20;;;;;;5368855;26;20001;-91
2024/04/22 07:19:41;;;;;;;5.95;4.75;;;4.80;82.60;;;;;;5361017;26;20021;-92
2024/04/22 07:22:07;;;;;;;11.60;6.47;;;4.80;82.20;;;;;;5362805;26;19999;-92
2024/04/22 07:24:33;;;;;;;24.65;13.35;;;5.00;81.50;;;;;;5381381;26;20007;-91
2024/04/22 07:26:59;;;;;;;7.15;5.38;;;5.00;82.50;;;;;;5399407;26;20004;-91
2024/04/22 07:29:25;;;;;;;8.00;7.20;;;5.10;80.30;;;;;;5352821;26;20099;-91
2024/04/22 07:31:51;;;;;;;9.18;5.07;;;5.20;80.30;;;;;;5393700;26;20255;-90
2024/04/22 07:34:17;;;;;;;8.07;5.60;;;5.20;80.80;;;;;;5389422;26;20098;-92
2024/04/22 07:37:08;;;;;;;8.05;5.70;;;5.30;81.20;;;;;;5349271;26;20000;-91
2024/04/22 07:39:38;;;;;;;7.72;4.10;;;5.40;81.80;;;;;;5358472;26;20220;-91
2024/04/22 07:42:04;;;;;;;7.03;3.95;;;5.50;81.70;;;;;;5401882;26;20023;-92
2024/04/22 07:44:33;;;;;;;5.93;3.53;;;5.60;78.00;;;;;;5356231;26;20041;-93
2024/04/22 07:46:58;;;;;;;6.07;4.00;;;5.70;80.10;;;;;;5346094;26;20004;-91
2024/04/22 07:49:24;;;;;;;4.60;3.25;;;5.80;76.90;;;;;;5366872;26;20000;-92
2024/04/22 07:51:50;;;;;;;6.05;4.55;;;5.90;77.50;;;;;;5361377;26;20043;-91
2024/04/22 07:54:18;;;;;;;5.45;3.35;;;6.00;76.50;;;;;;5347965;26;20055;-91
2024/04/22 07:56:48;;;;;;;5.50;3.78;;;6.20;77.70;;;;;;5334281;26;19997;-91
2024/04/22 07:59:24;;;;;;;6.75;4.72;;;6.30;75.40;;;;;;5396219;26;20031;-90
2024/04/22 08:01:50;;;;;;;4.60;4.20;;;6.30;78.00;;;;;;5375773;26;20012;-93
2024/04/22 08:04:20;;;;;;;6.78;3.63;;;6.50;75.60;;;;;;5367292;26;20000;-91
2024/04/22 08:06:52;;;;;;;6.15;3.85;;;6.50;74.70;;;;;;5394821;26;19999;-92
2024/04/22 08:09:20;;;;;;;6.07;4.88;;;6.60;73.70;;;;;;5400088;26;20054;-91
2024/04/22 08:11:46;;;;;;;5.35;3.20;;;6.60;71.90;;;;;;5387445;26;20001;-93
2024/04/22 08:14:14;;;;;;;4.78;3.15;;;6.80;70.50;;;;;;5357142;26;20016;-93
2024/04/22 08:16:40;;;;;;;5.35;3.70;;;6.90;70.10;;;;;;5362086;26;20030;-91
2024/04/22 08:19:06;;;;;;;5.43;3.25;;;7.00;70.30;;;;;;5374701;26;19997;-91
2024/04/22 08:21:31;;;;;;;7.93;3.20;;;7.20;70.30;;;;;;5385420;26;20126;-92
2024/04/22 08:23:57;;;;;;;5.53;3.67;;;7.50;68.40;;;;;;5371020;26;20334;-92
2024/04/22 08:26:23;;;;;;;5.78;3.63;;;7.70;66.30;;;;;;5390564;26;19997;-91
2024/04/22 08:28:54;;;;;;;4.90;3.63;;;7.70;64.30;;;;;;5398493;26;20008;-92
2024/04/22 08:31:19;;;;;;;4.75;2.88;;;7.70;64.60;;;;;;5373401;26;20004;-92
2024/04/22 08:33:45;;;;;;;4.40;3.13;;;7.80;64.80;;;;;;5380157;26;20017;-91
2024/04/22 08:36:13;;;;;;;4.30;3.72;;;7.80;62.80;;;;;;5388748;26;20021;-94
2024/04/22 08:38:47;;;;;;;6.50;3.35;;;8.00;61.90;;;;;;5412051;26;20013;-92
2024/04/22 08:41:15;;;;;;;4.75;3.58;;;8.00;62.70;;;;;;5426452;26;20011;-91
2024/04/22 08:43:43;;;;;;;;;;;8.10;60.70;;;;;;5388278;26;20021;-92
2024/04/22 08:46:09;;;;;;;5.75;3.20;;;8.30;62.50;;;;;;5339413;26;19918;-91
2024/04/22 08:48:35;;;;;;;4.25;3.15;;;8.10;59.00;;;;;;5400255;26;20040;-91
2024/04/22 08:51:01;;;;;;;6.18;3.33;;;8.20;57.70;;;;;;5366617;26;20000;-91
2024/04/22 08:53:29;;;;;;;5.38;3.75;;;8.50;57.40;;;;;;5325849;26;20008;-91
2024/04/22 08:55:59;;;;;;;4.53;2.85;;;8.60;56.80;;;;;;5374297;26;20039;-89
2024/04/22 08:58:25;;;;;;;5.68;2.88;;;8.70;56.60;;;;;;5411671;26;20070;-90
2024/04/22 09:00:50;;;;;;;5.82;5.43;;;9.00;55.00;;;;;;5381736;26;20036;-92
2024/04/22 09:03:16;;;;;;;6.03;2.78;;;9.10;54.50;;;;;;5358855;26;19996;-91
2024/04/22 09:05:42;;;;;;;5.38;4.88;;;8.90;52.30;;;;;;5372922;26;19996;-92
2024/04/22 09:08:09;;;;;;;5.65;3.58;;;8.70;53.70;;;;;;5402712;26;20010;-93
2024/04/22 09:10:39;;;;;;;5.05;3.38;;;8.50;54.30;;;;;;5377107;26;20015;-92
2024/04/22 09:13:05;;;;;;;5.45;3.25;;;8.40;55.00;;;;;;5398205;26;20048;-91
2024/04/22 09:15:31;;;;;;;5.90;5.13;;;8.20;55.20;;;;;;5370304;26;19996;-93
2024/04/22 09:18:00;;;;;;;4.32;3.72;;;8.10;55.90;;;;;;5371789;26;19996;-90
2024/04/22 09:20:33;;;;;;;4.65;3.70;;;8.00;57.20;;;;;;5372511;26;20000;-91
2024/04/22 09:23:03;;;;;;;5.10;3.78;;;8.20;56.90;;;;;;5351732;26;20078;-90
2024/04/22 09:25:31;;;;;;;4.68;3.35;;;8.50;55.50;;;;;;5383192;26;20027;-91
2024/04/22 09:28:00;;;;;;;5.80;3.05;;;8.60;56.70;;;;;;5349919;26;20016;-91
2024/04/22 09:30:38;;;;;;;5.00;4.38;;;8.60;53.90;;;;;;5401814;26;20015;-91
2024/04/22 09:33:11;;;;;;;5.13;4.47;;;8.40;54.60;;;;;;5402126;26;19996;-91
2024/04/22 09:35:38;;;;;;;5.45;4.80;;;8.70;55.50;;;;;;5387796;26;20074;-91
2024/04/22 09:38:04;;;;;;;5.00;2.55;;;8.80;51.10;;;;;;5342009;26;20004;-91
2024/04/22 09:40:31;;;;;;;6.45;5.88;;;8.90;50.80;;;;;;5329626;26;20042;-91
2024/04/22 09:43:01;;;;;;;7.53;4.90;;;8.80;49.90;;;;;;5344525;26;20001;-89
2024/04/22 09:45:27;;;;;;;8.93;6.22;;;9.00;51.10;;;;;;5358173;26;20000;-92
2024/04/22 09:47:53;;;;;;;5.68;3.72;;;9.30;47.90;;;;;;5370975;26;20007;-90
2024/04/22 09:50:19;;;;;;;4.50;3.83;;;9.70;48.90;;;;;;5412680;26;20007;-91
2024/04/22 09:52:47;;;;;;;5.65;5.05;;;9.90;48.60;;;;;;5387668;26;20011;-90
2024/04/22 09:55:15;;;;;;;7.03;6.30;;;10.20;45.20;;;;;;5376074;26;20001;-91
2024/04/22 09:57:42;;;;;;;9.27;5.75;;;10.40;46.70;;;;;;5329112;26;20016;-90
2024/04/22 10:00:19;;;;;;;4.63;3.92;;;10.90;46.50;;;;;;5359912;26;20069;-92
2024/04/22 10:02:47;;;;;;;5.38;4.85;;;11.30;44.20;;;;;;5386442;26;19996;-92
2024/04/22 10:05:17;;;;;;;5.50;4.32;;;10.90;42.60;;;;;;5360294;26;20005;-92
2024/04/22 10:07:42;;;;;;;4.28;3.83;;;10.80;43.40;;;;;;5378930;26;20003;-92
2024/04/22 10:10:09;;;;;;;5.53;3.75;;;10.40;42.90;;;;;;5377203;26;20001;-92
2024/04/22 10:12:35;;;;;;;3.97;3.40;;;10.10;44.30;;;;;;5363777;26;20033;-91
2024/04/22 10:15:14;;;;;;;4.18;3.75;;;9.80;44.10;;;;;;5352444;26;20080;-93
2024/04/22 10:17:42;;;;;;;4.55;4.15;;;10.10;44.10;;;;;;5368177;26;20004;-91
2024/04/22 10:20:07;;;;;;;;;;;10.30;43.60;;;;;;5362708;26;20004;-90
2024/04/22 10:22:38;;;;;;;5.47;4.95;;;10.40;44.80;;;;;;5357541;26;19994;-91
2024/04/22 10:25:08;;;;;;;4.68;4.20;;;10.20;43.90;;;;;;5335274;26;20007;-91
2024/04/22 10:27:39;;;;;;;4.70;4.32;;;10.00;43.30;;;;;;5404834;26;20061;-92
2024/04/22 10:30:06;;;;;;;5.05;2.95;;;9.90;44.30;;;;;;5379376;26;20007;-90
2024/04/22 10:32:32;;;;;;;5.20;4.18;;;9.90;45.10;;;;;;5388571;26;20004;-91
2024/04/22 10:34:58;;;;;;;3.28;2.17;;;9.90;44.80;;;;;;5344812;26;20760;-91
2024/04/22 10:37:23;;;;;;;4.63;4.20;;;9.80;43.60;;;;;;5402839;26;20527;-92
2024/04/22 10:39:49;;;;;;;6.03;4.68;;;9.50;43.70;;;;;;5343985;26;20008;-92
2024/04/22 10:42:16;;;;;;;7.82;5.15;;;9.10;47.00;;;;;;5406929;26;20219;-91
2024/04/22 10:44:44;;;;;;;6.50;4.63;;;8.90;49.40;;;;;;5378740;26;20010;-90
2024/04/22 10:47:12;;;;;;;7.45;4.18;;;8.70;51.70;;;;;;5375997;26;20036;-92
2024/04/22 10:49:40;;;;;;;7.53;3.45;;;8.70;54.70;;;;;;5354885;26;20012;-91
2024/04/22 10:52:06;;;;;;;5.72;4.35;;;8.50;54.00;;;;;;5338791;26;20036;-90
2024/04/22 10:54:31;;;;;;;5.90;5.03;;;8.40;54.80;;;;;;5382310;26;20073;-91
2024/04/22 10:56:59;;;;;;;4.97;2.47;;;8.30;55.10;;;;;;5395646;26;19996;-90
2024/04/22 10:59:25;;;;;;;4.68;3.95;;;8.60;52.90;;;;;;5387670;26;20004;-90
2024/04/22 11:01:51;;;;;;;5.55;3.65;;;9.30;51.90;;;;;;5365924;26;20065;-91
2024/04/22 11:04:21;;;;;;;6.10;4.90;;;10.20;49.90;;;;;;5388727;26;20007;-91
2024/04/22 11:06:48;;;;;;;5.25;4.70;;;10.40;47.60;;;;;;5378521;26;19997;-90
2024/04/22 11:09:16;;;;;;;6.03;5.07;;;10.70;46.70;;;;;;5354184;26;20000;-90
2024/04/22 11:11:42;;;;;;;6.20;4.78;;;10.30;47.70;;;;;;5402239;26;20035;-92
2024/04/22 11:14:09;;;;;;;8.18;6.72;;;10.20;49.10;;;;;;5408424;26;20057;-91
2024/04/22 11:16:35;;;;;;;6.32;5.72;;;9.90;49.80;;;;;;5369500;26;20004;-90
2024/04/22 11:19:01;;;;;;;5.47;2.88;;;9.40;50.60;;;;;;5388483;26;20523;-92
2024/04/22 11:21:28;;;;;;;6.72;5.10;;;9.10;50.50;;;;;;5353203;26;20009;-91
2024/04/22 11:23:54;;;;;;;4.85;3.90;;;8.90;52.30;;;;;;5366074;26;20007;-91
2024/04/22 11:26:26;;;;;;;5.68;4.47;;;9.00;50.40;;;;;;5386236;26;20004;-91
2024/04/22 11:29:01;;;;;;;3.80;3.45;;;9.10;49.50;;;;;;5359310;26;20020;-91
2024/04/22 11:31:27;;;;;;;3.45;2.88;;;9.10;49.00;;;;;;5348992;26;20015;-91
2024/04/22 11:33:55;;;;;;;4.10;3.80;;;9.10;48.80;;;;;;5426475;26;20031;-93
2024/04/22 11:36:25;;;;;;;4.38;3.90;;;9.20;50.00;;;;;;5362438;26;20001;-92
2024/04/22 11:38:53;;;;;;;4.20;3.80;;;9.50;50.10;;;;;;5377359;26;20042;-92
2024/04/22 11:41:20;;;;;;;3.58;3.28;;;9.90;47.90;;;;;;5394667;26;20000;-90
2024/04/22 11:43:46;;;;;;;3.22;2.97;;;9.90;47.60;;;;;;5382371;26;20081;-89
2024/04/22 11:46:12;;;;;;;3.85;3.33;;;9.90;47.20;;;;;;5375536;26;20691;-88
2024/04/22 11:48:37;;;;;;;3.80;3.50;;;10.00;45.60;;;;;;5358486;26;20120;-89
2024/04/22 11:51:03;;;;;;;3.90;3.60;;;9.90;42.40;;;;;;5353944;26;20038;-90
2024/04/22 11:53:29;;;;;;;4.47;3.35;;;9.90;44.60;;;;;;5380934;26;20012;-91
2024/04/22 11:55:55;;;;;;;7.22;4.75;;;9.90;43.90;;;;;;5337219;26;20004;-89
2024/04/22 11:58:24;;;;;;;13.93;9.10;;;9.90;42.50;;;;;;5368447;26;20008;-88
2024/04/22 12:00:49;;;;;;;8.13;7.32;;;10.00;44.00;;;;;;5370697;26;20005;-89
2024/04/22 12:03:15;;;;;;;4.22;3.90;;;9.90;44.00;;;;;;5360971;26;20581;-90
2024/04/22 12:05:40;;;;;;;15.50;10.60;;;9.80;44.80;;;;;;5381228;26;20048;-89
2024/04/22 12:08:07;;;;;;;6.18;5.32;;;9.60;45.50;;;;;;5351072;26;20005;-87
2024/04/22 12:10:32;;;;;;;8.48;7.63;;;9.60;46.10;;;;;;5367970;26;19997;-89
2024/04/22 12:12:58;;;;;;;5.82;5.32;;;9.80;45.80;;;;;;5375033;26;19996;-90
2024/04/22 12:15:24;;;;;;;8.98;8.20;;;9.90;44.80;;;;;;5395317;26;20047;-88
2024/04/22 12:17:49;;;;;;;8.90;7.72;;;10.10;45.10;;;;;;5365222;26;19995;-87
2024/04/22 12:20:15;;;;;;;6.88;5.95;;;10.40;44.00;;;;;;5391475;26;20011;-87
2024/04/22 12:22:41;;;;;;;6.80;6.22;;;10.90;42.30;;;;;;5373583;26;20248;-88
2024/04/22 12:25:07;;;;;;;5.22;4.75;;;11.30;40.50;;;;;;5379582;26;20473;-89
2024/04/22 12:27:33;;;;;;;5.68;4.65;;;11.20;42.20;;;;;;5409971;26;20014;-88
2024/04/22 12:29:59;;;;;;;7.43;6.50;;;11.20;43.70;;;;;;5336687;26;20013;-90
2024/04/22 12:32:25;;;;;;;13.02;11.73;;;11.90;41.90;;;;;;5376107;26;19996;-89
2024/04/22 12:34:51;;;;;;;3.95;3.38;;;11.80;41.90;;;;;;5375249;26;19996;-92
2024/04/22 12:37:16;;;;;;;4.40;3.03;;;12.30;37.40;;;;;;5375284;26;20347;-90
2024/04/22 12:39:42;;;;;;;5.25;4.75;;;12.50;36.60;;;;;;5389984;26;20011;-92
2024/04/22 12:42:08;;;;;;;4.28;3.75;;;12.50;36.70;;;;;;5370724;26;19993;-91
2024/04/22 12:44:33;;;;;;;4.20;3.88;;;12.80;36.60;;;;;;5385359;26;20015;-88
2024/04/22 12:52:27;;;;;;;5.45;4.93;;;14.00;33.10;;;;;;5365144;26;20048;-92
2024/04/22 12:54:53;;;;;;;3.90;3.60;;;13.80;33.80;;;;;;5387505;26;20016;-89
2024/04/22 12:57:19;;;;;;;3.83;3.53;;;14.10;32.60;;;;;;5375376;26;20000;-92
2024/04/22 12:59:44;;;;;;;4.90;4.38;;;13.80;34.60;;;;;;5352175;26;20012;-92
2024/04/22 13:02:12;;;;;;;4.30;3.95;;;13.50;34.00;;;;;;5372634;26;20008;-92
2024/04/22 13:04:38;;;;;;;8.00;5.10;;;13.10;34.30;;;;;;5360772;26;20070;-90